sensor_id;sensor_type;location;lat;lon;timestamp;P1;durP1;ratioP1;P2;durP2;ratioP2
51810;SDS011;52468;40.116;18.296;2022-08-26T00:01:31;13.93;;;9.70;;
51810;SDS011;52468;40.116;18.296;2022-08-26T00:04:00;17.97;;;9.07;;
51810;SDS011;52468;40.116;18.296;2022-08-26T00:06:28;16.93;;;8.53;;
51810;SDS011;52468;40.116;18.296;2022-08-26T00:08:58;17.00;;;9.97;;
51810;SDS011;52468;40.116;18.296;2022-08-26T00:11:26;11.27;;;7.70;;
51810;SDS011;52468;40.116;18.296;2022-08-26T00:13:54;17.40;;;8.87;;
51810;SDS011;52468;40.116;18.296;2022-08-26T00:16:24;12.53;;;8.17;;
51810;SDS011;52468;40.116;18.296;2022-08-26T00:18:53;14.77;;;7.70;;
51810;SDS011;52468;40.116;18.296;2022-08-26T00:21:22;15.47;;;9.03;;
51810;SDS011;52468;40.116;18.296;2022-08-26T00:23:50;21.27;;;8.73;;
51810;SDS011;52468;40.116;18.296;2022-08-26T00:26:18;13.17;;;7.80;;
51810;SDS011;52468;40.116;18.296;2022-08-26T00:28:46;12.60;;;7.80;;
51810;SDS011;52468;40.116;18.296;2022-08-26T00:31:14;22.37;;;9.60;;
51810;SDS011;52468;40.116;18.296;2022-08-26T00:33:42;12.80;;;9.37;;
51810;SDS011;52468;40.116;18.296;2022-08-26T00:36:10;16.27;;;8.83;;
51810;SDS011;52468;40.116;18.296;2022-08-26T00:38:38;18.07;;;9.67;;
51810;SDS011;52468;40.116;18.296;2022-08-26T00:41:06;14.97;;;9.00;;
51810;SDS011;52468;40.116;18.296;2022-08-26T00:43:34;15.37;;;8.43;;
51810;SDS011;52468;40.116;18.296;2022-08-26T00:46:07;13.30;;;8.20;;
51810;SDS011;52468;40.116;18.296;2022-08-26T00:48:41;15.23;;;8.80;;
51810;SDS011;52468;40.116;18.296;2022-08-26T00:51:18;18.63;;;9.55;;
51810;SDS011;52468;40.116;18.296;2022-08-26T00:53:53;16.80;;;9.83;;
51810;SDS011;52468;40.116;18.296;2022-08-26T00:59:05;14.93;;;9.00;;
51810;SDS011;52468;40.116;18.296;2022-08-26T01:01:35;16.03;;;8.00;;
51810;SDS011;52468;40.116;18.296;2022-08-26T01:04:04;18.70;;;7.83;;
51810;SDS011;52468;40.116;18.296;2022-08-26T01:06:32;19.33;;;8.53;;
51810;SDS011;52468;40.116;18.296;2022-08-26T01:09:00;13.13;;;7.33;;
51810;SDS011;52468;40.116;18.296;2022-08-26T01:11:28;14.97;;;9.23;;
51810;SDS011;52468;40.116;18.296;2022-08-26T01:13:57;19.30;;;8.60;;
51810;SDS011;52468;40.116;18.296;2022-08-26T01:16:28;16.33;;;7.87;;
51810;SDS011;52468;40.116;18.296;2022-08-26T01:18:59;11.03;;;7.43;;
51810;SDS011;52468;40.116;18.296;2022-08-26T01:24:07;20.13;;;9.17;;
51810;SDS011;52468;40.116;18.296;2022-08-26T01:26:37;15.57;;;8.10;;
51810;SDS011;52468;40.116;18.296;2022-08-26T01:29:10;18.37;;;7.83;;
51810;SDS011;52468;40.116;18.296;2022-08-26T01:31:43;12.37;;;7.07;;
51810;SDS011;52468;40.116;18.296;2022-08-26T01:34:20;12.83;;;7.00;;
51810;SDS011;52468;40.116;18.296;2022-08-26T01:39:33;12.53;;;7.93;;
51810;SDS011;52468;40.116;18.296;2022-08-26T01:42:02;12.07;;;7.83;;
51810;SDS011;52468;40.116;18.296;2022-08-26T01:44:36;17.43;;;8.07;;
51810;SDS011;52468;40.116;18.296;2022-08-26T01:47:12;12.57;;;7.83;;
51810;SDS011;52468;40.116;18.296;2022-08-26T01:49:41;13.73;;;7.47;;
51810;SDS011;52468;40.116;18.296;2022-08-26T01:52:11;17.93;;;7.80;;
51810;SDS011;52468;40.116;18.296;2022-08-26T01:54:44;11.27;;;7.27;;
51810;SDS011;52468;40.116;18.296;2022-08-26T01:57:14;13.60;;;6.73;;
51810;SDS011;52468;40.116;18.296;2022-08-26T01:59:43;17.53;;;8.60;;
51810;SDS011;52468;40.116;18.296;2022-08-26T02:02:10;10.60;;;7.00;;
51810;SDS011;52468;40.116;18.296;2022-08-26T02:04:41;13.13;;;8.33;;
51810;SDS011;52468;40.116;18.296;2022-08-26T02:07:14;15.20;;;7.70;;
51810;SDS011;52468;40.116;18.296;2022-08-26T02:09:45;10.50;;;6.10;;
51810;SDS011;52468;40.116;18.296;2022-08-26T02:12:14;11.00;;;6.97;;
51810;SDS011;52468;40.116;18.296;2022-08-26T02:14:45;16.60;;;8.53;;
51810;SDS011;52468;40.116;18.296;2022-08-26T02:17:28;13.83;;;7.57;;
51810;SDS011;52468;40.116;18.296;2022-08-26T02:20:01;14.80;;;8.70;;
51810;SDS011;52468;40.116;18.296;2022-08-26T02:22:30;17.40;;;8.07;;
51810;SDS011;52468;40.116;18.296;2022-08-26T02:25:44;12.30;;;8.17;;
51810;SDS011;52468;40.116;18.296;2022-08-26T02:28:19;15.13;;;8.13;;
51810;SDS011;52468;40.116;18.296;2022-08-26T02:30:47;16.60;;;7.40;;
51810;SDS011;52468;40.116;18.296;2022-08-26T02:33:15;13.27;;;7.83;;
51810;SDS011;52468;40.116;18.296;2022-08-26T02:35:43;11.10;;;7.30;;
51810;SDS011;52468;40.116;18.296;2022-08-26T02:38:11;16.07;;;7.77;;
51810;SDS011;52468;40.116;18.296;2022-08-26T02:40:40;14.00;;;8.03;;
51810;SDS011;52468;40.116;18.296;2022-08-26T02:43:09;9.07;;;6.77;;
51810;SDS011;52468;40.116;18.296;2022-08-26T02:45:38;12.07;;;7.77;;
51810;SDS011;52468;40.116;18.296;2022-08-26T02:48:14;11.40;;;7.43;;
51810;SDS011;52468;40.116;18.296;2022-08-26T02:50:43;17.60;;;8.17;;
51810;SDS011;52468;40.116;18.296;2022-08-26T02:53:11;18.53;;;8.40;;
51810;SDS011;52468;40.116;18.296;2022-08-26T02:55:40;12.67;;;7.70;;
51810;SDS011;52468;40.116;18.296;2022-08-26T02:58:08;13.53;;;7.33;;
51810;SDS011;52468;40.116;18.296;2022-08-26T03:00:37;13.30;;;8.10;;
51810;SDS011;52468;40.116;18.296;2022-08-26T03:03:06;13.93;;;7.37;;
51810;SDS011;52468;40.116;18.296;2022-08-26T03:05:34;14.30;;;8.20;;
51810;SDS011;52468;40.116;18.296;2022-08-26T03:08:02;15.27;;;7.43;;
51810;SDS011;52468;40.116;18.296;2022-08-26T03:10:31;15.53;;;7.13;;
51810;SDS011;52468;40.116;18.296;2022-08-26T03:12:58;8.17;;;7.00;;
51810;SDS011;52468;40.116;18.296;2022-08-26T03:15:26;14.10;;;7.97;;
51810;SDS011;52468;40.116;18.296;2022-08-26T03:17:55;17.90;;;7.87;;
51810;SDS011;52468;40.116;18.296;2022-08-26T03:20:23;13.77;;;8.23;;
51810;SDS011;52468;40.116;18.296;2022-08-26T03:22:51;12.77;;;7.37;;
51810;SDS011;52468;40.116;18.296;2022-08-26T03:25:19;12.17;;;7.40;;
51810;SDS011;52468;40.116;18.296;2022-08-26T03:27:48;14.90;;;7.50;;
51810;SDS011;52468;40.116;18.296;2022-08-26T03:30:16;15.70;;;7.83;;
51810;SDS011;52468;40.116;18.296;2022-08-26T03:33:04;12.47;;;6.90;;
51810;SDS011;52468;40.116;18.296;2022-08-26T03:35:33;11.93;;;7.30;;
51810;SDS011;52468;40.116;18.296;2022-08-26T03:38:01;12.77;;;7.67;;
51810;SDS011;52468;40.116;18.296;2022-08-26T03:40:30;11.93;;;6.70;;
51810;SDS011;52468;40.116;18.296;2022-08-26T03:43:00;15.00;;;7.87;;
51810;SDS011;52468;40.116;18.296;2022-08-26T03:45:30;16.43;;;8.63;;
51810;SDS011;52468;40.116;18.296;2022-08-26T03:47:59;15.23;;;9.03;;
51810;SDS011;52468;40.116;18.296;2022-08-26T03:50:27;13.23;;;7.90;;
51810;SDS011;52468;40.116;18.296;2022-08-26T03:52:56;11.87;;;8.57;;
51810;SDS011;52468;40.116;18.296;2022-08-26T03:55:24;15.73;;;7.87;;
51810;SDS011;52468;40.116;18.296;2022-08-26T03:57:54;10.20;;;8.00;;
51810;SDS011;52468;40.116;18.296;2022-08-26T04:00:22;17.77;;;7.60;;
51810;SDS011;52468;40.116;18.296;2022-08-26T04:02:50;15.57;;;7.63;;
51810;SDS011;52468;40.116;18.296;2022-08-26T04:05:19;13.17;;;8.23;;
51810;SDS011;52468;40.116;18.296;2022-08-26T04:07:48;15.20;;;8.20;;
51810;SDS011;52468;40.116;18.296;2022-08-26T04:10:17;10.47;;;7.60;;
51810;SDS011;52468;40.116;18.296;2022-08-26T04:12:49;15.43;;;7.97;;
51810;SDS011;52468;40.116;18.296;2022-08-26T04:15:18;14.50;;;8.30;;
51810;SDS011;52468;40.116;18.296;2022-08-26T04:17:47;11.97;;;7.07;;
51810;SDS011;52468;40.116;18.296;2022-08-26T04:20:15;17.97;;;8.27;;
51810;SDS011;52468;40.116;18.296;2022-08-26T04:22:44;12.53;;;6.70;;
51810;SDS011;52468;40.116;18.296;2022-08-26T04:25:12;8.47;;;7.10;;
51810;SDS011;52468;40.116;18.296;2022-08-26T04:27:40;12.63;;;7.07;;
51810;SDS011;52468;40.116;18.296;2022-08-26T04:30:08;12.67;;;7.30;;
51810;SDS011;52468;40.116;18.296;2022-08-26T04:32:36;12.10;;;6.90;;
51810;SDS011;52468;40.116;18.296;2022-08-26T04:35:04;11.97;;;7.33;;
51810;SDS011;52468;40.116;18.296;2022-08-26T04:37:33;13.80;;;7.57;;
51810;SDS011;52468;40.116;18.296;2022-08-26T04:40:00;17.03;;;8.20;;
51810;SDS011;52468;40.116;18.296;2022-08-26T04:42:29;10.93;;;7.03;;
51810;SDS011;52468;40.116;18.296;2022-08-26T04:44:59;10.33;;;6.37;;
51810;SDS011;52468;40.116;18.296;2022-08-26T04:47:27;9.20;;;6.77;;
51810;SDS011;52468;40.116;18.296;2022-08-26T04:49:58;13.17;;;6.73;;
51810;SDS011;52468;40.116;18.296;2022-08-26T04:52:26;12.53;;;7.00;;
51810;SDS011;52468;40.116;18.296;2022-08-26T04:54:53;13.00;;;6.20;;
51810;SDS011;52468;40.116;18.296;2022-08-26T05:17:37;8.47;;;6.27;;
51810;SDS011;52468;40.116;18.296;2022-08-26T05:20:05;9.60;;;5.87;;
51810;SDS011;52468;40.116;18.296;2022-08-26T05:22:33;17.77;;;6.07;;
51810;SDS011;52468;40.116;18.296;2022-08-26T05:25:01;9.93;;;5.50;;
51810;SDS011;52468;40.116;18.296;2022-08-26T05:27:29;17.00;;;5.47;;
51810;SDS011;52468;40.116;18.296;2022-08-26T05:29:57;9.57;;;5.37;;
51810;SDS011;52468;40.116;18.296;2022-08-26T05:32:24;10.17;;;6.17;;
51810;SDS011;52468;40.116;18.296;2022-08-26T05:34:53;8.53;;;5.00;;
51810;SDS011;52468;40.116;18.296;2022-08-26T05:37:23;8.30;;;5.37;;
51810;SDS011;52468;40.116;18.296;2022-08-26T05:39:51;6.77;;;4.60;;
51810;SDS011;52468;40.116;18.296;2022-08-26T05:42:18;13.37;;;6.13;;
51810;SDS011;52468;40.116;18.296;2022-08-26T05:44:50;11.97;;;5.90;;
51810;SDS011;52468;40.116;18.296;2022-08-26T05:47:19;7.63;;;5.57;;
51810;SDS011;52468;40.116;18.296;2022-08-26T05:49:46;10.90;;;5.50;;
51810;SDS011;52468;40.116;18.296;2022-08-26T05:52:15;9.50;;;5.77;;
51810;SDS011;52468;40.116;18.296;2022-08-26T05:54:43;8.67;;;5.57;;
51810;SDS011;52468;40.116;18.296;2022-08-26T05:57:11;8.00;;;5.67;;
51810;SDS011;52468;40.116;18.296;2022-08-26T05:59:39;8.47;;;5.03;;
51810;SDS011;52468;40.116;18.296;2022-08-26T06:02:07;8.97;;;4.50;;
51810;SDS011;52468;40.116;18.296;2022-08-26T06:04:35;8.37;;;6.33;;
51810;SDS011;52468;40.116;18.296;2022-08-26T06:07:03;10.10;;;5.83;;
51810;SDS011;52468;40.116;18.296;2022-08-26T06:09:31;8.30;;;6.33;;
51810;SDS011;52468;40.116;18.296;2022-08-26T06:12:03;8.50;;;5.80;;
51810;SDS011;52468;40.116;18.296;2022-08-26T06:14:31;8.50;;;5.60;;
51810;SDS011;52468;40.116;18.296;2022-08-26T06:16:59;17.60;;;6.63;;
51810;SDS011;52468;40.116;18.296;2022-08-26T06:19:27;10.17;;;5.77;;
51810;SDS011;52468;40.116;18.296;2022-08-26T06:21:55;10.93;;;5.43;;
51810;SDS011;52468;40.116;18.296;2022-08-26T06:24:23;9.27;;;5.60;;
51810;SDS011;52468;40.116;18.296;2022-08-26T06:27:10;10.67;;;5.80;;
51810;SDS011;52468;40.116;18.296;2022-08-26T06:29:39;9.63;;;5.60;;
51810;SDS011;52468;40.116;18.296;2022-08-26T06:32:08;9.53;;;6.13;;
51810;SDS011;52468;40.116;18.296;2022-08-26T06:34:35;8.40;;;5.80;;
51810;SDS011;52468;40.116;18.296;2022-08-26T06:37:04;11.13;;;5.93;;
51810;SDS011;52468;40.116;18.296;2022-08-26T06:39:32;10.17;;;5.27;;
51810;SDS011;52468;40.116;18.296;2022-08-26T06:42:00;12.83;;;6.43;;
51810;SDS011;52468;40.116;18.296;2022-08-26T06:44:33;7.45;;;5.35;;
51810;SDS011;52468;40.116;18.296;2022-08-26T06:47:00;9.60;;;6.07;;
51810;SDS011;52468;40.116;18.296;2022-08-26T06:49:28;10.47;;;5.00;;
51810;SDS011;52468;40.116;18.296;2022-08-26T06:51:57;8.13;;;5.53;;
51810;SDS011;52468;40.116;18.296;2022-08-26T06:54:28;9.90;;;6.07;;
51810;SDS011;52468;40.116;18.296;2022-08-26T06:56:57;8.45;;;5.07;;
51810;SDS011;52468;40.116;18.296;2022-08-26T06:59:26;10.30;;;5.50;;
51810;SDS011;52468;40.116;18.296;2022-08-26T07:01:54;10.70;;;5.40;;
51810;SDS011;52468;40.116;18.296;2022-08-26T07:04:22;13.07;;;6.10;;
51810;SDS011;52468;40.116;18.296;2022-08-26T07:06:51;7.97;;;5.47;;
51810;SDS011;52468;40.116;18.296;2022-08-26T07:09:20;7.03;;;5.60;;
51810;SDS011;52468;40.116;18.296;2022-08-26T07:11:49;12.82;;;6.15;;
51810;SDS011;52468;40.116;18.296;2022-08-26T07:14:18;9.88;;;5.07;;
51810;SDS011;52468;40.116;18.296;2022-08-26T07:16:48;12.45;;;5.28;;
51810;SDS011;52468;40.116;18.296;2022-08-26T07:19:17;13.07;;;5.30;;
51810;SDS011;52468;40.116;18.296;2022-08-26T07:21:45;8.55;;;4.35;;
51810;SDS011;52468;40.116;18.296;2022-08-26T07:24:14;12.30;;;5.18;;
51810;SDS011;52468;40.116;18.296;2022-08-26T07:26:42;11.07;;;5.18;;
51810;SDS011;52468;40.116;18.296;2022-08-26T07:29:10;11.13;;;5.20;;
51810;SDS011;52468;40.116;18.296;2022-08-26T07:31:38;11.63;;;5.50;;
51810;SDS011;52468;40.116;18.296;2022-08-26T07:34:07;8.05;;;5.07;;
51810;SDS011;52468;40.116;18.296;2022-08-26T07:36:36;8.25;;;5.25;;
51810;SDS011;52468;40.116;18.296;2022-08-26T07:39:05;10.95;;;5.63;;
51810;SDS011;52468;40.116;18.296;2022-08-26T07:41:33;12.57;;;6.20;;
51810;SDS011;52468;40.116;18.296;2022-08-26T07:44:02;13.38;;;6.07;;
51810;SDS011;52468;40.116;18.296;2022-08-26T07:46:30;13.73;;;5.85;;
51810;SDS011;52468;40.116;18.296;2022-08-26T07:48:58;11.05;;;5.20;;
51810;SDS011;52468;40.116;18.296;2022-08-26T07:51:26;10.63;;;6.43;;
51810;SDS011;52468;40.116;18.296;2022-08-26T07:53:54;11.85;;;4.97;;
51810;SDS011;52468;40.116;18.296;2022-08-26T07:56:22;6.78;;;4.78;;
51810;SDS011;52468;40.116;18.296;2022-08-26T07:58:51;9.77;;;5.25;;
51810;SDS011;52468;40.116;18.296;2022-08-26T08:01:20;10.07;;;6.53;;
51810;SDS011;52468;40.116;18.296;2022-08-26T08:03:50;6.65;;;4.68;;
51810;SDS011;52468;40.116;18.296;2022-08-26T08:06:20;9.35;;;5.50;;
51810;SDS011;52468;40.116;18.296;2022-08-26T08:08:49;12.13;;;5.75;;
51810;SDS011;52468;40.116;18.296;2022-08-26T08:11:18;7.78;;;6.10;;
51810;SDS011;52468;40.116;18.296;2022-08-26T08:13:47;11.07;;;5.03;;
51810;SDS011;52468;40.116;18.296;2022-08-26T08:16:16;11.15;;;5.20;;
51810;SDS011;52468;40.116;18.296;2022-08-26T08:18:47;10.35;;;5.63;;
51810;SDS011;52468;40.116;18.296;2022-08-26T08:21:14;12.23;;;5.57;;
51810;SDS011;52468;40.116;18.296;2022-08-26T08:23:46;12.00;;;5.03;;
51810;SDS011;52468;40.116;18.296;2022-08-26T08:26:14;11.80;;;5.50;;
51810;SDS011;52468;40.116;18.296;2022-08-26T08:28:41;9.98;;;5.35;;
51810;SDS011;52468;40.116;18.296;2022-08-26T08:31:16;9.13;;;5.60;;
51810;SDS011;52468;40.116;18.296;2022-08-26T08:33:54;10.27;;;5.88;;
51810;SDS011;52468;40.116;18.296;2022-08-26T08:36:22;12.05;;;5.28;;
51810;SDS011;52468;40.116;18.296;2022-08-26T08:38:50;16.17;;;5.47;;
51810;SDS011;52468;40.116;18.296;2022-08-26T08:44:32;10.68;;;5.47;;
51810;SDS011;52468;40.116;18.296;2022-08-26T08:47:13;16.05;;;5.78;;
51810;SDS011;52468;40.116;18.296;2022-08-26T08:50:05;6.55;;;5.30;;
51810;SDS011;52468;40.116;18.296;2022-08-26T08:53:36;8.88;;;5.53;;
51810;SDS011;52468;40.116;18.296;2022-08-26T09:01:46;10.85;;;5.70;;
51810;SDS011;52468;40.116;18.296;2022-08-26T09:05:02;12.80;;;6.07;;
51810;SDS011;52468;40.116;18.296;2022-08-26T09:07:16;13.68;;;5.72;;
51810;SDS011;52468;40.116;18.296;2022-08-26T09:12:38;9.95;;;4.35;;
51810;SDS011;52468;40.116;18.296;2022-08-26T09:15:09;10.77;;;5.80;;
51810;SDS011;52468;40.116;18.296;2022-08-26T09:18:02;10.77;;;5.35;;
51810;SDS011;52468;40.116;18.296;2022-08-26T09:23:09;10.63;;;5.93;;
51810;SDS011;52468;40.116;18.296;2022-08-26T09:25:55;9.45;;;5.35;;
51810;SDS011;52468;40.116;18.296;2022-08-26T09:28:26;9.18;;;4.90;;
51810;SDS011;52468;40.116;18.296;2022-08-26T09:31:00;8.05;;;4.30;;
51810;SDS011;52468;40.116;18.296;2022-08-26T09:33:40;15.10;;;6.22;;
51810;SDS011;52468;40.116;18.296;2022-08-26T09:36:12;10.65;;;5.53;;
51810;SDS011;52468;40.116;18.296;2022-08-26T09:41:27;13.73;;;7.32;;
51810;SDS011;52468;40.116;18.296;2022-08-26T09:44:11;13.63;;;5.70;;
51810;SDS011;52468;40.116;18.296;2022-08-26T09:46:51;10.82;;;6.15;;
51810;SDS011;52468;40.116;18.296;2022-08-26T09:54:44;13.20;;;5.20;;
51810;SDS011;52468;40.116;18.296;2022-08-26T09:57:27;14.60;;;5.82;;
51810;SDS011;52468;40.116;18.296;2022-08-26T09:59:57;11.38;;;5.32;;
51810;SDS011;52468;40.116;18.296;2022-08-26T10:04:58;11.52;;;5.90;;
51810;SDS011;52468;40.116;18.296;2022-08-26T10:07:46;7.80;;;5.00;;
51810;SDS011;52468;40.116;18.296;2022-08-26T10:10:20;14.15;;;5.75;;
51810;SDS011;52468;40.116;18.296;2022-08-26T10:12:59;12.32;;;5.88;;
51810;SDS011;52468;40.116;18.296;2022-08-26T10:16:21;15.50;;;6.70;;
51810;SDS011;52468;40.116;18.296;2022-08-26T10:18:29;11.63;;;4.93;;
51810;SDS011;52468;40.116;18.296;2022-08-26T10:21:09;13.88;;;5.82;;
51810;SDS011;52468;40.116;18.296;2022-08-26T10:23:42;12.37;;;6.97;;
51810;SDS011;52468;40.116;18.296;2022-08-26T10:26:21;14.10;;;6.50;;
51810;SDS011;52468;40.116;18.296;2022-08-26T10:29:12;12.80;;;6.47;;
51810;SDS011;52468;40.116;18.296;2022-08-26T10:34:57;11.00;;;5.53;;
51810;SDS011;52468;40.116;18.296;2022-08-26T10:37:26;9.23;;;5.10;;
51810;SDS011;52468;40.116;18.296;2022-08-26T10:40:16;8.48;;;5.22;;
51810;SDS011;52468;40.116;18.296;2022-08-26T10:42:53;13.65;;;5.70;;
51810;SDS011;52468;40.116;18.296;2022-08-26T10:45:25;10.43;;;5.55;;
51810;SDS011;52468;40.116;18.296;2022-08-26T10:50:33;10.50;;;5.68;;
51810;SDS011;52468;40.116;18.296;2022-08-26T10:53:10;15.05;;;5.78;;
51810;SDS011;52468;40.116;18.296;2022-08-26T10:58:55;12.52;;;6.88;;
51810;SDS011;52468;40.116;18.296;2022-08-26T11:01:48;10.32;;;6.60;;
51810;SDS011;52468;40.116;18.296;2022-08-26T11:04:28;15.40;;;5.78;;
51810;SDS011;52468;40.116;18.296;2022-08-26T11:17:57;10.95;;;5.70;;
51810;SDS011;52468;40.116;18.296;2022-08-26T11:20:45;11.85;;;4.70;;
51810;SDS011;52468;40.116;18.296;2022-08-26T11:26:29;10.50;;;5.15;;
51810;SDS011;52468;40.116;18.296;2022-08-26T11:28:42;10.93;;;5.57;;
51810;SDS011;52468;40.116;18.296;2022-08-26T11:33:52;10.02;;;4.78;;
51810;SDS011;52468;40.116;18.296;2022-08-26T11:37:05;16.55;;;6.22;;
51810;SDS011;52468;40.116;18.296;2022-08-26T11:39:25;16.00;;;5.57;;
51810;SDS011;52468;40.116;18.296;2022-08-26T11:42:23;11.13;;;5.40;;
51810;SDS011;52468;40.116;18.296;2022-08-26T11:47:49;7.65;;;5.45;;
51810;SDS011;52468;40.116;18.296;2022-08-26T11:50:21;11.82;;;6.07;;
51810;SDS011;52468;40.116;18.296;2022-08-26T11:52:58;10.18;;;5.88;;
51810;SDS011;52468;40.116;18.296;2022-08-26T11:55:32;13.50;;;4.78;;
51810;SDS011;52468;40.116;18.296;2022-08-26T11:58:02;14.48;;;6.57;;
51810;SDS011;52468;40.116;18.296;2022-08-26T12:00:33;12.73;;;5.15;;
51810;SDS011;52468;40.116;18.296;2022-08-26T12:03:10;12.13;;;5.68;;
51810;SDS011;52468;40.116;18.296;2022-08-26T12:05:46;14.80;;;5.63;;
51810;SDS011;52468;40.116;18.296;2022-08-26T12:08:19;7.45;;;4.70;;
51810;SDS011;52468;40.116;18.296;2022-08-26T12:13:33;18.20;;;6.03;;
51810;SDS011;52468;40.116;18.296;2022-08-26T12:16:05;15.43;;;5.30;;
51810;SDS011;52468;40.116;18.296;2022-08-26T12:18:37;7.82;;;5.47;;
51810;SDS011;52468;40.116;18.296;2022-08-26T12:23:42;13.23;;;5.88;;
51810;SDS011;52468;40.116;18.296;2022-08-26T12:31:37;12.30;;;5.15;;
51810;SDS011;52468;40.116;18.296;2022-08-26T12:34:12;10.27;;;5.65;;
51810;SDS011;52468;40.116;18.296;2022-08-26T12:36:43;13.32;;;6.35;;
51810;SDS011;52468;40.116;18.296;2022-08-26T12:39:16;11.15;;;5.82;;
51810;SDS011;52468;40.116;18.296;2022-08-26T12:41:53;13.82;;;5.38;;
51810;SDS011;52468;40.116;18.296;2022-08-26T12:49:56;10.23;;;4.88;;
51810;SDS011;52468;40.116;18.296;2022-08-26T12:52:41;16.83;;;5.97;;
51810;SDS011;52468;40.116;18.296;2022-08-26T12:55:22;16.45;;;5.45;;
51810;SDS011;52468;40.116;18.296;2022-08-26T13:08:42;13.98;;;5.10;;
51810;SDS011;52468;40.116;18.296;2022-08-26T13:13:59;14.68;;;5.80;;
51810;SDS011;52468;40.116;18.296;2022-08-26T13:16:34;21.33;;;6.57;;
51810;SDS011;52468;40.116;18.296;2022-08-26T13:19:04;12.68;;;6.30;;
51810;SDS011;52468;40.116;18.296;2022-08-26T13:21:34;8.77;;;5.70;;
51810;SDS011;52468;40.116;18.296;2022-08-26T13:24:36;16.23;;;5.82;;
51810;SDS011;52468;40.116;18.296;2022-08-26T13:27:09;9.63;;;5.05;;
51810;SDS011;52468;40.116;18.296;2022-08-26T13:29:38;15.90;;;5.90;;
51810;SDS011;52468;40.116;18.296;2022-08-26T13:32:07;10.30;;;4.88;;
51810;SDS011;52468;40.116;18.296;2022-08-26T13:34:35;15.23;;;5.72;;
51810;SDS011;52468;40.116;18.296;2022-08-26T13:37:04;9.85;;;5.38;;
51810;SDS011;52468;40.116;18.296;2022-08-26T13:39:33;11.40;;;5.38;;
51810;SDS011;52468;40.116;18.296;2022-08-26T13:42:00;10.13;;;5.43;;
51810;SDS011;52468;40.116;18.296;2022-08-26T13:44:28;9.93;;;5.60;;
51810;SDS011;52468;40.116;18.296;2022-08-26T13:46:56;16.45;;;6.22;;
51810;SDS011;52468;40.116;18.296;2022-08-26T13:49:24;12.07;;;5.35;;
51810;SDS011;52468;40.116;18.296;2022-08-26T13:51:52;16.38;;;6.45;;
51810;SDS011;52468;40.116;18.296;2022-08-26T13:54:20;10.48;;;4.72;;
51810;SDS011;52468;40.116;18.296;2022-08-26T13:56:48;11.18;;;5.43;;
51810;SDS011;52468;40.116;18.296;2022-08-26T13:59:15;12.68;;;5.95;;
51810;SDS011;52468;40.116;18.296;2022-08-26T14:01:43;17.80;;;5.43;;
51810;SDS011;52468;40.116;18.296;2022-08-26T14:04:11;7.32;;;4.78;;
51810;SDS011;52468;40.116;18.296;2022-08-26T14:06:39;10.90;;;5.18;;
51810;SDS011;52468;40.116;18.296;2022-08-26T14:09:07;12.45;;;5.00;;
51810;SDS011;52468;40.116;18.296;2022-08-26T14:11:35;13.93;;;6.60;;
51810;SDS011;52468;40.116;18.296;2022-08-26T14:14:02;12.98;;;5.05;;
51810;SDS011;52468;40.116;18.296;2022-08-26T14:16:31;12.02;;;4.88;;
51810;SDS011;52468;40.116;18.296;2022-08-26T14:19:03;16.38;;;5.13;;
51810;SDS011;52468;40.116;18.296;2022-08-26T14:21:33;7.82;;;4.78;;
51810;SDS011;52468;40.116;18.296;2022-08-26T14:24:03;12.85;;;5.18;;
51810;SDS011;52468;40.116;18.296;2022-08-26T14:26:32;11.45;;;4.57;;
51810;SDS011;52468;40.116;18.296;2022-08-26T14:29:00;13.77;;;4.97;;
51810;SDS011;52468;40.116;18.296;2022-08-26T14:31:30;8.55;;;4.63;;
51810;SDS011;52468;40.116;18.296;2022-08-26T14:34:02;8.15;;;4.85;;
51810;SDS011;52468;40.116;18.296;2022-08-26T14:36:32;10.63;;;5.60;;
51810;SDS011;52468;40.116;18.296;2022-08-26T14:39:04;14.80;;;6.57;;
51810;SDS011;52468;40.116;18.296;2022-08-26T14:41:37;9.90;;;4.38;;
51810;SDS011;52468;40.116;18.296;2022-08-26T14:44:13;16.58;;;4.85;;
51810;SDS011;52468;40.116;18.296;2022-08-26T14:46:46;12.38;;;5.20;;
51810;SDS011;52468;40.116;18.296;2022-08-26T14:49:17;8.45;;;4.65;;
51810;SDS011;52468;40.116;18.296;2022-08-26T14:51:45;9.90;;;4.60;;
51810;SDS011;52468;40.116;18.296;2022-08-26T14:54:14;18.75;;;5.93;;
51810;SDS011;52468;40.116;18.296;2022-08-26T14:56:45;6.85;;;4.55;;
51810;SDS011;52468;40.116;18.296;2022-08-26T14:59:21;10.10;;;4.70;;
51810;SDS011;52468;40.116;18.296;2022-08-26T15:02:00;10.63;;;6.47;;
51810;SDS011;52468;40.116;18.296;2022-08-26T15:04:28;9.18;;;5.38;;
51810;SDS011;52468;40.116;18.296;2022-08-26T15:06:57;11.15;;;4.78;;
51810;SDS011;52468;40.116;18.296;2022-08-26T15:09:26;7.47;;;4.60;;
51810;SDS011;52468;40.116;18.296;2022-08-26T15:11:55;15.02;;;4.85;;
51810;SDS011;52468;40.116;18.296;2022-08-26T15:14:23;8.30;;;5.88;;
51810;SDS011;52468;40.116;18.296;2022-08-26T15:16:54;12.77;;;4.82;;
51810;SDS011;52468;40.116;18.296;2022-08-26T15:19:23;15.20;;;6.20;;
51810;SDS011;52468;40.116;18.296;2022-08-26T15:21:52;10.40;;;4.93;;
51810;SDS011;52468;40.116;18.296;2022-08-26T15:24:20;10.15;;;5.30;;
51810;SDS011;52468;40.116;18.296;2022-08-26T15:26:50;14.48;;;5.35;;
51810;SDS011;52468;40.116;18.296;2022-08-26T15:29:19;8.48;;;4.82;;
51810;SDS011;52468;40.116;18.296;2022-08-26T15:31:49;14.75;;;5.20;;
51810;SDS011;52468;40.116;18.296;2022-08-26T15:34:17;11.48;;;5.65;;
51810;SDS011;52468;40.116;18.296;2022-08-26T15:36:45;7.88;;;4.80;;
51810;SDS011;52468;40.116;18.296;2022-08-26T15:39:14;11.60;;;5.03;;
51810;SDS011;52468;40.116;18.296;2022-08-26T15:41:43;11.90;;;4.70;;
51810;SDS011;52468;40.116;18.296;2022-08-26T15:44:12;11.82;;;4.85;;
51810;SDS011;52468;40.116;18.296;2022-08-26T15:46:43;13.55;;;6.78;;
51810;SDS011;52468;40.116;18.296;2022-08-26T15:49:11;13.25;;;5.15;;
51810;SDS011;52468;40.116;18.296;2022-08-26T15:51:39;13.30;;;5.32;;
51810;SDS011;52468;40.116;18.296;2022-08-26T15:54:08;13.57;;;5.38;;
51810;SDS011;52468;40.116;18.296;2022-08-26T15:56:36;20.88;;;6.47;;
51810;SDS011;52468;40.116;18.296;2022-08-26T15:59:05;9.68;;;4.15;;
51810;SDS011;52468;40.116;18.296;2022-08-26T16:01:37;11.70;;;6.32;;
51810;SDS011;52468;40.116;18.296;2022-08-26T16:04:05;7.70;;;5.03;;
51810;SDS011;52468;40.116;18.296;2022-08-26T16:06:34;12.75;;;4.80;;
51810;SDS011;52468;40.116;18.296;2022-08-26T16:09:04;10.70;;;5.20;;
51810;SDS011;52468;40.116;18.296;2022-08-26T16:11:33;14.48;;;7.30;;
51810;SDS011;52468;40.116;18.296;2022-08-26T16:14:04;12.52;;;9.57;;
51810;SDS011;52468;40.116;18.296;2022-08-26T16:16:35;12.18;;;6.85;;
51810;SDS011;52468;40.116;18.296;2022-08-26T16:19:06;14.05;;;6.38;;
51810;SDS011;52468;40.116;18.296;2022-08-26T16:21:34;11.15;;;6.10;;
51810;SDS011;52468;40.116;18.296;2022-08-26T16:24:02;13.80;;;5.60;;
51810;SDS011;52468;40.116;18.296;2022-08-26T16:26:32;14.50;;;6.50;;
51810;SDS011;52468;40.116;18.296;2022-08-26T16:29:03;12.15;;;6.30;;
51810;SDS011;52468;40.116;18.296;2022-08-26T16:31:33;17.47;;;7.10;;
51810;SDS011;52468;40.116;18.296;2022-08-26T16:34:04;12.82;;;6.22;;
51810;SDS011;52468;40.116;18.296;2022-08-26T16:36:33;10.35;;;6.22;;
51810;SDS011;52468;40.116;18.296;2022-08-26T16:39:02;17.95;;;6.78;;